Guadalupe — WDG4275 — position and weather

sailwx.info

Track history (hours):
 
Tides and Currents Weather Stations Pressure Air Temp Water Temp Dewpoint Dewpoint Depression Visibility Wind Speed Wind Dir Waves Ship Positions

Guadalupe

Owner: Kirby Inland Marine, LP, Houston, TX. More information available from US FCC via Universal Licensing System and Coast Guard Vessel Documentation Center.

Last reported at 2018-Jun-14 04:02 UTC. Time now 2018-Jun-19 10:32 UTC.
Position N 29°46' W 095°06'.

Length 210 m; draft 3 m.

Type: . MMSI: 367534840.

Date/timePositionNaut miles runAvg speedWind from/ knotsBaromVisibWave heightAir tempDewpointWater temp
2018-Jun-14 04:02N 29°46' W 095°06'  
2018-Jun-09 20:43N 29°42' W 095°01'1 6.6
2018-Jun-09 20:30N 29°42' W 094°59'4 7.3
2018-Jun-09 19:56N 29°38' W 094°58'22 3.3
2018-Jun-09 13:19N 29°30' W 094°34'2 6.4
2018-Jun-09 12:57N 29°31' W 094°31'3 6.8
2018-Jun-09 12:30N 29°33' W 094°28'3 5.5
2018-Jun-09 12:00N 29°34' W 094°26'2 4.8
2018-Jun-09 11:30N 29°36' W 094°24'3 5.7
2018-Jun-09 11:00N 29°37' W 094°21'3 6.5
2018-Jun-09 10:30N 29°38' W 094°18'3 6.6
2018-Jun-09 10:00N 29°40' W 094°14'3 6.7
2018-Jun-09 09:30N 29°41' W 094°11'2 3.6
2018-Jun-09 09:00N 29°42' W 094°09'2 3.2
2018-Jun-09 08:30N 29°43' W 094°07'4 7.1
2018-Jun-09 08:00N 29°45' W 094°04'4 7.2
2018-Jun-09 07:30N 29°47' W 094°01'3 6.1
2018-Jun-09 07:00N 29°49' W 093°58'2 4.3
2018-Jun-09 06:30N 29°51' W 093°57'4 7.9
2018-Jun-09 06:00N 29°54' W 093°54'4 8.3
2018-Jun-09 05:30N 29°58' W 093°51'2 4.6
2018-Jun-09 05:00N 29°59' W 093°49'3 5.9
2018-Jun-09 04:30N 30°00' W 093°46'3 6.9
2018-Jun-09 04:00N 30°03' W 093°44'2 4.4
2018-Jun-09 03:30N 30°04' W 093°41'4 7.2
2018-Jun-09 03:00N 30°04' W 093°37'3 6.5
2018-Jun-09 02:30N 30°04' W 093°33'3 6.3
2018-Jun-09 02:00N 30°04' W 093°30'3 6.3
2018-Jun-09 01:30N 30°04' W 093°26'3 6.2
2018-Jun-09 01:00N 30°04' W 093°23'2 4.5
2018-Jun-09 00:30N 30°05' W 093°20'2 4.7
2018-Jun-09 00:00N 30°05' W 093°18'1 2.1
2018-Jun-08 23:31N 30°05' W 093°17'1 1.3
2018-Jun-08 23:00N 30°04' W 093°16'0 0.0
2018-Jun-08 22:30N 30°04' W 093°16'0 0.3
2018-Jun-08 22:00N 30°04' W 093°16'0 0.0
2018-Jun-08 21:30N 30°04' W 093°16'0 0.0
2018-Jun-08 21:00N 30°04' W 093°16'0 0.0
2018-Jun-08 20:31N 30°04' W 093°16'0 0.0
2018-Jun-08 20:01N 30°04' W 093°16'0 0.0
2018-Jun-08 19:30N 30°04' W 093°16'0 0.0
2018-Jun-08 19:00N 30°04' W 093°16'0 0.0
2018-Jun-08 18:29N 30°04' W 093°16'0 0.0
2018-Jun-08 18:00N 30°04' W 093°16'0 0.0
2018-Jun-08 17:30N 30°04' W 093°16'0 0.0
2018-Jun-08 17:00N 30°04' W 093°16'0 0.0
2018-Jun-08 16:30N 30°04' W 093°16'0 0.0
2018-Jun-08 16:00N 30°04' W 093°16'0 0.0
2018-Jun-08 15:30N 30°04' W 093°16'0 0.0
2018-Jun-08 15:00N 30°04' W 093°16'0 0.0
2018-Jun-08 14:28N 30°04' W 093°16'0 0.0
2018-Jun-08 14:00N 30°04' W 093°16'0 0.0
2018-Jun-08 13:30N 30°04' W 093°16'0 0.0
2018-Jun-08 13:00N 30°04' W 093°16'0 0.0
2018-Jun-08 12:30N 30°04' W 093°16'0 0.0
2018-Jun-08 12:01N 30°04' W 093°16'0 0.2
2018-Jun-08 11:30N 30°04' W 093°16'1 2.9
2018-Jun-08 11:00N 30°02' W 093°16'0 0.0
2018-Jun-08 10:30N 30°02' W 093°16'0 0.0
2018-Jun-08 10:00N 30°02' W 093°16'0 0.0
2018-Jun-08 09:30N 30°02' W 093°16'0 0.0
2018-Jun-08 09:01N 30°02' W 093°16'0 0.0
2018-Jun-08 08:31N 30°02' W 093°16'0 0.0
2018-Jun-08 08:01N 30°02' W 093°16'0 0.0
2018-Jun-08 07:31N 30°02' W 093°16'0 0.0
2018-Jun-08 07:01N 30°02' W 093°16'0 0.0
2018-Jun-08 06:31N 30°02' W 093°16'0 0.0
2018-Jun-08 06:00N 30°02' W 093°16'0 0.0
2018-Jun-08 05:29N 30°02' W 093°16'1 2.5
2018-Jun-08 05:01N 30°02' W 093°14'1 1.2
2018-Jun-08 04:31N 30°01' W 093°14'2 4.7
2018-Jun-08 04:00N 29°59' W 093°13'0 0.0
2018-Jun-08 03:30N 29°59' W 093°13'0 0.0
2018-Jun-08 03:01N 29°59' W 093°13'0 0.0
2018-Jun-08 02:30N 29°59' W 093°13'0 0.0
2018-Jun-08 02:00N 29°59' W 093°13'0 0.0
2018-Jun-08 01:31N 29°59' W 093°13'0 0.0
2018-Jun-08 01:00N 29°59' W 093°13'0 0.0
2018-Jun-08 00:31N 29°59' W 093°13'0 0.0
2018-Jun-08 00:01N 29°59' W 093°13'0 0.0
2018-Jun-07 23:30N 29°59' W 093°13'0 0.0
2018-Jun-07 23:00N 29°59' W 093°13'0 0.0
2018-Jun-07 22:31N 29°59' W 093°13'0 0.0
2018-Jun-07 22:00N 29°59' W 093°13'0 0.0
2018-Jun-07 21:30N 29°59' W 093°13'0 0.0
2018-Jun-07 21:00N 29°59' W 093°13'0 0.0
2018-Jun-07 20:31N 29°59' W 093°13'0 0.0
2018-Jun-07 20:00N 29°59' W 093°13'0 0.0
2018-Jun-07 19:30N 29°59' W 093°13'0 0.0
2018-Jun-07 19:01N 29°59' W 093°13'0 0.0
2018-Jun-07 18:31N 29°59' W 093°13'0 0.1
2018-Jun-07 18:01N 29°59' W 093°13'0 0.0
2018-Jun-07 17:30N 29°59' W 093°13'0 0.2
2018-Jun-07 17:01N 29°59' W 093°13'2 3.1
2018-Jun-07 16:30N 29°58' W 093°11'0 0.0
2018-Jun-07 16:00N 29°58' W 093°11'0 0.0
2018-Jun-07 15:30N 29°58' W 093°11'0 0.1
2018-Jun-07 15:00N 29°58' W 093°11'0 0.9
2018-Jun-07 14:30N 29°58' W 093°11'1 2.3
2018-Jun-07 14:01N 29°57' W 093°10'3 5.5
2018-Jun-07 13:30N 29°56' W 093°07'3 5.8
2018-Jun-07 13:01N 29°56' W 093°04'3 5.6
2018-Jun-07 12:29N 29°56' W 093°00'3 5.5
2018-Jun-07 12:00N 29°56' W 092°57'3 5.4
2018-Jun-07 11:30N 29°56' W 092°54'24 5.7
2018-Jun-07 07:18N 29°54' W 092°27'2 6.1
2018-Jun-07 06:58N 29°53' W 092°25'3 5.7
2018-Jun-07 06:27N 29°52' W 092°22'2 5.4
2018-Jun-07 06:01N 29°50' W 092°20'2 4.6
2018-Jun-07 05:31N 29°49' W 092°17'2 4.0
2018-Jun-07 05:00N 29°48' W 092°15'2 5.0
2018-Jun-07 04:30N 29°47' W 092°13'1 2.3
2018-Jun-07 04:00N 29°47' W 092°11'0 0.1
2018-Jun-07 03:30N 29°47' W 092°11'0 0.1
2018-Jun-07 03:01N 29°47' W 092°11'0 0.0
2018-Jun-07 02:31N 29°47' W 092°11'0 0.0
2018-Jun-07 02:01N 29°47' W 092°11'0 0.0
2018-Jun-07 01:30N 29°47' W 092°11'0 0.0
2018-Jun-07 01:00N 29°47' W 092°11'0 0.0
2018-Jun-07 00:30N 29°47' W 092°11'0 0.0
2018-Jun-06 23:59N 29°47' W 092°11'0 0.1
2018-Jun-06 23:31N 29°47' W 092°11'2 3.1
2018-Jun-06 23:01N 29°47' W 092°10'3 5.4
2018-Jun-06 22:30N 29°48' W 092°07'0 0.2
2018-Jun-06 22:01N 29°48' W 092°07'0 0.0
2018-Jun-06 21:31N 29°48' W 092°07'0 0.3
2018-Jun-06 21:00N 29°48' W 092°07'2 4.1
2018-Jun-06 20:31N 29°48' W 092°04'3 6.5
2018-Jun-06 20:01N 29°49' W 092°01'3 6.9
2018-Jun-06 19:30N 29°50' W 091°57'  
Track history (hours):
 
Tides and Currents Weather Stations Pressure Air Temp Water Temp Dewpoint Dewpoint Depression Visibility Wind Speed Wind Dir Waves Ship Positions

Guadalupe

Owner: Kirby Inland Marine, LP, Houston, TX. More information available from US FCC via Universal Licensing System and Coast Guard Vessel Documentation Center.

Last reported at 2018-Jun-14 04:02 UTC. Time now 2018-Jun-19 10:32 UTC.
Position N 29°46' W 095°06'.

Length 210 m; draft 3 m.

Type: . MMSI: 367534840.

Date/timePositionNaut miles runAvg speedWind from/ knotsBaromVisibWave heightAir tempDewpointWater temp
2018-Jun-14 04:02N 29°46' W 095°06'  
2018-Jun-09 20:43N 29°42' W 095°01'1 6.6
2018-Jun-09 20:30N 29°42' W 094°59'4 7.3
2018-Jun-09 19:56N 29°38' W 094°58'22 3.3
2018-Jun-09 13:19N 29°30' W 094°34'2 6.4
2018-Jun-09 12:57N 29°31' W 094°31'3 6.8
2018-Jun-09 12:30N 29°33' W 094°28'3 5.5
2018-Jun-09 12:00N 29°34' W 094°26'2 4.8
2018-Jun-09 11:30N 29°36' W 094°24'3 5.7
2018-Jun-09 11:00N 29°37' W 094°21'3 6.5
2018-Jun-09 10:30N 29°38' W 094°18'3 6.6
2018-Jun-09 10:00N 29°40' W 094°14'3 6.7
2018-Jun-09 09:30N 29°41' W 094°11'2 3.6
2018-Jun-09 09:00N 29°42' W 094°09'2 3.2
2018-Jun-09 08:30N 29°43' W 094°07'4 7.1
2018-Jun-09 08:00N 29°45' W 094°04'4 7.2
2018-Jun-09 07:30N 29°47' W 094°01'3 6.1
2018-Jun-09 07:00N 29°49' W 093°58'2 4.3
2018-Jun-09 06:30N 29°51' W 093°57'4 7.9
2018-Jun-09 06:00N 29°54' W 093°54'4 8.3
2018-Jun-09 05:30N 29°58' W 093°51'2 4.6
2018-Jun-09 05:00N 29°59' W 093°49'3 5.9
2018-Jun-09 04:30N 30°00' W 093°46'3 6.9
2018-Jun-09 04:00N 30°03' W 093°44'2 4.4
2018-Jun-09 03:30N 30°04' W 093°41'4 7.2
2018-Jun-09 03:00N 30°04' W 093°37'3 6.5
2018-Jun-09 02:30N 30°04' W 093°33'3 6.3
2018-Jun-09 02:00N 30°04' W 093°30'3 6.3
2018-Jun-09 01:30N 30°04' W 093°26'3 6.2
2018-Jun-09 01:00N 30°04' W 093°23'2 4.5
2018-Jun-09 00:30N 30°05' W 093°20'2 4.7
2018-Jun-09 00:00N 30°05' W 093°18'1 2.1
2018-Jun-08 23:31N 30°05' W 093°17'1 1.3
2018-Jun-08 23:00N 30°04' W 093°16'0 0.0
2018-Jun-08 22:30N 30°04' W 093°16'0 0.3
2018-Jun-08 22:00N 30°04' W 093°16'0 0.0
2018-Jun-08 21:30N 30°04' W 093°16'0 0.0
2018-Jun-08 21:00N 30°04' W 093°16'0 0.0
2018-Jun-08 20:31N 30°04' W 093°16'0 0.0
2018-Jun-08 20:01N 30°04' W 093°16'0 0.0
2018-Jun-08 19:30N 30°04' W 093°16'0 0.0
2018-Jun-08 19:00N 30°04' W 093°16'0 0.0
2018-Jun-08 18:29N 30°04' W 093°16'0 0.0
2018-Jun-08 18:00N 30°04' W 093°16'0 0.0
2018-Jun-08 17:30N 30°04' W 093°16'0 0.0
2018-Jun-08 17:00N 30°04' W 093°16'0 0.0
2018-Jun-08 16:30N 30°04' W 093°16'0 0.0
2018-Jun-08 16:00N 30°04' W 093°16'0 0.0
2018-Jun-08 15:30N 30°04' W 093°16'0 0.0
2018-Jun-08 15:00N 30°04' W 093°16'0 0.0
2018-Jun-08 14:28N 30°04' W 093°16'0 0.0
2018-Jun-08 14:00N 30°04' W 093°16'0 0.0
2018-Jun-08 13:30N 30°04' W 093°16'0 0.0
2018-Jun-08 13:00N 30°04' W 093°16'0 0.0
2018-Jun-08 12:30N 30°04' W 093°16'0 0.0
2018-Jun-08 12:01N 30°04' W 093°16'0 0.2
2018-Jun-08 11:30N 30°04' W 093°16'1 2.9
2018-Jun-08 11:00N 30°02' W 093°16'0 0.0
2018-Jun-08 10:30N 30°02' W 093°16'0 0.0
2018-Jun-08 10:00N 30°02' W 093°16'0 0.0
2018-Jun-08 09:30N 30°02' W 093°16'0 0.0
2018-Jun-08 09:01N 30°02' W 093°16'0 0.0
2018-Jun-08 08:31N 30°02' W 093°16'0 0.0
2018-Jun-08 08:01N 30°02' W 093°16'0 0.0
2018-Jun-08 07:31N 30°02' W 093°16'0 0.0
2018-Jun-08 07:01N 30°02' W 093°16'0 0.0
2018-Jun-08 06:31N 30°02' W 093°16'0 0.0
2018-Jun-08 06:00N 30°02' W 093°16'0 0.0
2018-Jun-08 05:29N 30°02' W 093°16'1 2.5
2018-Jun-08 05:01N 30°02' W 093°14'1 1.2
2018-Jun-08 04:31N 30°01' W 093°14'2 4.7
2018-Jun-08 04:00N 29°59' W 093°13'0 0.0
2018-Jun-08 03:30N 29°59' W 093°13'0 0.0
2018-Jun-08 03:01N 29°59' W 093°13'0 0.0
2018-Jun-08 02:30N 29°59' W 093°13'0 0.0
2018-Jun-08 02:00N 29°59' W 093°13'0 0.0
2018-Jun-08 01:31N 29°59' W 093°13'0 0.0
2018-Jun-08 01:00N 29°59' W 093°13'0 0.0
2018-Jun-08 00:31N 29°59' W 093°13'0 0.0
2018-Jun-08 00:01N 29°59' W 093°13'0 0.0
2018-Jun-07 23:30N 29°59' W 093°13'0 0.0
2018-Jun-07 23:00N 29°59' W 093°13'0 0.0
2018-Jun-07 22:31N 29°59' W 093°13'0 0.0
2018-Jun-07 22:00N 29°59' W 093°13'0 0.0
2018-Jun-07 21:30N 29°59' W 093°13'0 0.0
2018-Jun-07 21:00N 29°59' W 093°13'0 0.0
2018-Jun-07 20:31N 29°59' W 093°13'0 0.0
2018-Jun-07 20:00N 29°59' W 093°13'0 0.0
2018-Jun-07 19:30N 29°59' W 093°13'0 0.0
2018-Jun-07 19:01N 29°59' W 093°13'0 0.0
2018-Jun-07 18:31N 29°59' W 093°13'0 0.1
2018-Jun-07 18:01N 29°59' W 093°13'0 0.0
2018-Jun-07 17:30N 29°59' W 093°13'0 0.2
2018-Jun-07 17:01N 29°59' W 093°13'2 3.1
2018-Jun-07 16:30N 29°58' W 093°11'0 0.0
2018-Jun-07 16:00N 29°58' W 093°11'0 0.0
2018-Jun-07 15:30N 29°58' W 093°11'0 0.1
2018-Jun-07 15:00N 29°58' W 093°11'0 0.9
2018-Jun-07 14:30N 29°58' W 093°11'1 2.3
2018-Jun-07 14:01N 29°57' W 093°10'3 5.5
2018-Jun-07 13:30N 29°56' W 093°07'3 5.8
2018-Jun-07 13:01N 29°56' W 093°04'3 5.6
2018-Jun-07 12:29N 29°56' W 093°00'3 5.5
2018-Jun-07 12:00N 29°56' W 092°57'3 5.4
2018-Jun-07 11:30N 29°56' W 092°54'24 5.7
2018-Jun-07 07:18N 29°54' W 092°27'2 6.1
2018-Jun-07 06:58N 29°53' W 092°25'3 5.7
2018-Jun-07 06:27N 29°52' W 092°22'2 5.4
2018-Jun-07 06:01N 29°50' W 092°20'2 4.6
2018-Jun-07 05:31N 29°49' W 092°17'2 4.0
2018-Jun-07 05:00N 29°48' W 092°15'2 5.0
2018-Jun-07 04:30N 29°47' W 092°13'1 2.3
2018-Jun-07 04:00N 29°47' W 092°11'0 0.1
2018-Jun-07 03:30N 29°47' W 092°11'0 0.1
2018-Jun-07 03:01N 29°47' W 092°11'0 0.0
2018-Jun-07 02:31N 29°47' W 092°11'0 0.0
2018-Jun-07 02:01N 29°47' W 092°11'0 0.0
2018-Jun-07 01:30N 29°47' W 092°11'0 0.0
2018-Jun-07 01:00N 29°47' W 092°11'0 0.0
2018-Jun-07 00:30N 29°47' W 092°11'0 0.0
2018-Jun-06 23:59N 29°47' W 092°11'0 0.1
2018-Jun-06 23:31N 29°47' W 092°11'2 3.1
2018-Jun-06 23:01N 29°47' W 092°10'3 5.4
2018-Jun-06 22:30N 29°48' W 092°07'0 0.2
2018-Jun-06 22:01N 29°48' W 092°07'0 0.0
2018-Jun-06 21:31N 29°48' W 092°07'0 0.3
2018-Jun-06 21:00N 29°48' W 092°07'2 4.1
2018-Jun-06 20:31N 29°48' W 092°04'3 6.5
2018-Jun-06 20:01N 29°49' W 092°01'3 6.9
2018-Jun-06 19:30N 29°50' W 091°57'  

Dump ship's entire track history